DENTE EDDG-EDDG
Flight info
| Callsign | DENTE |
|---|---|
| Flight time | N/A |
| Altitude | |
| Route | |
| Aircraft | C172 |
Departure
| Time | 2026-04-25 13:31 |
|---|---|
| Airport | Münster Osnabrück Airport (EDDG) |
Arrival
| Time | N/A |
|---|---|
| Airport | Münster Osnabrück Airport (EDDG) |
| Time | Latitude | Longitude | Altitude | Speed | Heading |
|---|---|---|---|---|---|
| 2026-04-25 13:26 | 52.13106 | 7.68236 | 161 ft | 0 kts | 270° |
| 2026-04-25 13:28 | 52.13110 | 7.68212 | 161 ft | 6 kts | 308° |
| 2026-04-25 13:29 | 52.13165 | 7.68207 | 161 ft | 9 kts | 14° |
| 2026-04-25 13:29 | 52.13186 | 7.68281 | 161 ft | 7 kts | 73° |
| 2026-04-25 13:29 | 52.13208 | 7.68349 | 161 ft | 6 kts | 16° |
| 2026-04-25 13:30 | 52.13273 | 7.68313 | 161 ft | 9 kts | 341° |
| 2026-04-25 13:30 | 52.13355 | 7.68267 | 162 ft | 16 kts | 341° |
| 2026-04-25 13:30 | 52.13392 | 7.68147 | 162 ft | 12 kts | 253° |
| 2026-04-25 13:31 | 52.13196 | 7.67227 | 268 ft | 69 kts | 250° |
| 2026-04-25 13:31 | 52.12986 | 7.66454 | 496 ft | 78 kts | 246° |
| 2026-04-25 13:31 | 52.12743 | 7.65656 | 751 ft | 81 kts | 245° |
| 2026-04-25 13:31 | 52.12523 | 7.64812 | 908 ft | 84 kts | 279° |
| 2026-04-25 13:32 | 52.12950 | 7.63992 | 937 ft | 108 kts | 326° |
| 2026-04-25 13:32 | 52.13703 | 7.63702 | 911 ft | 116 kts | 348° |
| 2026-04-25 13:32 | 52.14518 | 7.63585 | 874 ft | 113 kts | 351° |
| 2026-04-25 13:32 | 52.15228 | 7.63923 | 1011 ft | 111 kts | 42° |
| 2026-04-25 13:33 | 52.15471 | 7.65098 | 1055 ft | 118 kts | 79° |
| 2026-04-25 13:33 | 52.15585 | 7.66346 | 1274 ft | 104 kts | 78° |
| 2026-04-25 13:33 | 52.15712 | 7.67537 | 1363 ft | 111 kts | 79° |
| 2026-04-25 13:33 | 52.15828 | 7.68413 | 1428 ft | 120 kts | 72° |
| 2026-04-25 13:34 | 52.16124 | 7.70215 | 1329 ft | 129 kts | 74° |
| 2026-04-25 13:34 | 52.16300 | 7.71663 | 1251 ft | 132 kts | 91° |
| 2026-04-25 13:34 | 52.16013 | 7.73021 | 1159 ft | 128 kts | 129° |
| 2026-04-25 13:34 | 52.15337 | 7.73909 | 1125 ft | 121 kts | 166° |
| 2026-04-25 13:35 | 52.14576 | 7.73846 | 999 ft | 108 kts | 224° |
| 2026-04-25 13:35 | 52.14291 | 7.72806 | 780 ft | 104 kts | 256° |
| 2026-04-25 13:35 | 52.14088 | 7.71662 | 485 ft | 107 kts | 255° |
| 2026-04-25 13:35 | 52.13895 | 7.70569 | 282 ft | 94 kts | 253° |
| 2026-04-25 13:36 | 52.13704 | 7.69630 | 175 ft | 80 kts | 252° |
| 2026-04-25 13:36 | 52.13542 | 7.68848 | 162 ft | 67 kts | 251° |
| 2026-04-25 13:36 | 52.13369 | 7.68040 | 278 ft | 79 kts | 253° |
| 2026-04-25 13:36 | 52.13170 | 7.67188 | 532 ft | 82 kts | 248° |
| 2026-04-25 13:37 | 52.12644 | 7.66947 | 903 ft | 92 kts | 165° |
| 2026-04-25 13:37 | 52.12073 | 7.67391 | 1149 ft | 104 kts | 149° |
| 2026-04-25 13:37 | 52.11603 | 7.68496 | 1086 ft | 133 kts | 110° |
| 2026-04-25 13:37 | 52.11358 | 7.69990 | 1091 ft | 125 kts | 122° |
| 2026-04-25 13:38 | 52.10738 | 7.70630 | 1332 ft | 106 kts | 180° |